Time;durP1;ratioP1;P1;durP2;ratioP2;P2;SDS_P1;SDS_P2;PMS_P1;PMS_P2;Temp;Humidity;BMP_temperature;BMP_pressure;BME280_temperature;BME280_humidity;BME280_pressure;Samples;Min_cycle;Max_cycle;Signal;HPM_P1;HPM_P2
2021/05/19 00:00:52;;;;;;;4.50;2.40;;;;;;;11.41;78.26;99729.92;102438;1118;81600;-61
2021/05/19 00:03:01;;;;;;;3.20;2.10;;;;;;;11.46;78.07;99732.82;102437;1118;80684;-61
2021/05/19 00:05:09;;;;;;;2.90;2.00;;;;;;;11.48;78.17;99730.76;102450;1117;80931;-61
2021/05/19 00:07:17;;;;;;;4.60;2.10;;;;;;;11.47;78.10;99731.80;102454;1119;80698;-63
2021/05/19 00:09:26;;;;;;;3.70;1.80;;;;;;;11.43;78.29;99719.72;102432;1117;81178;-62
2021/05/19 00:11:32;;;;;;;2.60;1.80;;;;;;;11.40;78.32;99730.98;102426;1117;79890;-63
2021/05/19 00:13:38;;;;;;;3.10;2.00;;;;;;;11.35;78.24;99728.05;102253;1120;81609;-61
2021/05/19 00:15:44;;;;;;;4.90;2.20;;;;;;;11.32;78.36;99726.61;102444;1118;80320;-61
2021/05/19 00:17:50;;;;;;;4.10;1.90;;;;;;;11.31;78.48;99724.13;102464;1119;80453;-63
2021/05/19 00:19:55;;;;;;;2.90;1.90;;;;;;;11.30;78.54;99727.86;102451;1117;80714;-62
2021/05/19 00:22:01;;;;;;;2.50;1.70;;;;;;;11.28;78.38;99729.95;102472;1118;79274;-61
2021/05/19 00:24:10;;;;;;;3.30;2.10;;;;;;;11.22;78.56;99727.05;102454;1117;80226;-61
2021/05/19 00:26:20;;;;;;;3.20;2.00;;;;;;;11.22;78.83;99731.63;102468;1117;80609;-61
2021/05/19 00:28:26;;;;;;;3.00;2.00;;;;;;;11.16;78.85;99730.59;102461;1117;79545;-62
2021/05/19 00:30:37;;;;;;;4.70;1.90;;;;;;;11.23;78.77;99730.59;102500;1118;80238;-62
2021/05/19 00:32:42;;;;;;;3.60;2.10;;;;;;;11.21;78.89;99724.54;102476;1118;80619;-60
2021/05/19 00:34:49;;;;;;;2.80;2.10;;;;;;;11.19;79.00;99723.92;102437;1117;81376;-61
2021/05/19 00:36:55;;;;;;;2.10;1.60;;;;;;;11.17;78.97;99728.72;102448;1118;80513;-61
2021/05/19 00:39:01;;;;;;;2.80;2.10;;;;;;;11.17;79.22;99726.86;102458;1118;80219;-61
2021/05/19 00:41:09;;;;;;;3.40;2.30;;;;;;;11.15;79.19;99728.11;102443;1117;78922;-61
2021/05/19 00:43:14;;;;;;;3.40;1.90;;;;;;;11.17;79.22;99732.27;102425;1117;80167;-62
2021/05/19 00:45:21;;;;;;;3.20;2.20;;;;;;;11.19;79.26;99730.17;102330;1120;81544;-62
2021/05/19 00:47:36;;;;;;;2.50;2.00;;;;;;;11.24;79.25;99743.05;102456;1118;80899;-62
2021/05/19 00:49:41;;;;;;;3.00;2.00;;;;;;;11.24;79.31;99743.89;102446;1118;81102;-62
2021/05/19 00:51:47;;;;;;;3.60;2.00;;;;;;;11.29;79.25;99745.95;102454;1118;79985;-61
2021/05/19 00:53:55;;;;;;;3.30;2.00;;;;;;;11.25;79.34;99745.56;102425;1117;80723;-61
2021/05/19 00:56:01;;;;;;;2.70;1.90;;;;;;;11.22;79.36;99745.14;102455;1117;80516;-61
2021/05/19 00:58:07;;;;;;;3.50;1.90;;;;;;;11.22;79.54;99748.68;102452;1117;80685;-60
2021/05/19 01:00:18;;;;;;;2.80;2.00;;;;;;;11.25;79.49;99745.56;102467;1117;80905;-61
2021/05/19 01:02:24;;;;;;;3.00;1.70;;;;;;;11.28;79.60;99748.88;102370;1120;80469;-61
2021/05/19 01:04:30;;;;;;;4.00;2.30;;;;;;;11.28;79.49;99751.58;102426;1117;79562;-61
2021/05/19 01:06:43;;;;;;;3.00;1.50;;;;;;;11.21;79.66;99749.71;102436;1118;80420;-61
2021/05/19 01:11:15;;;;;;;3.70;2.90;;;;;;;11.25;79.53;99748.27;102427;1117;79770;-61
2021/05/19 01:13:24;;;;;;;2.60;1.80;;;;;;;11.22;79.60;99748.68;102454;1118;79344;-62
2021/05/19 01:15:30;;;;;;;3.50;2.00;;;;;;;11.25;79.80;99750.13;102456;1117;79854;-62
2021/05/19 01:17:38;;;;;;;3.70;2.20;;;;;;;11.21;79.73;99748.88;102433;1117;82068;-62
2021/05/19 01:19:48;;;;;;;2.60;2.20;;;;;;;11.20;79.69;99745.36;102424;1118;79288;-62
2021/05/19 01:21:57;;;;;;;3.30;1.70;;;;;;;11.20;79.70;99747.23;102455;1118;80470;-62
2021/05/19 01:24:05;;;;;;;4.60;2.00;;;;;;;11.21;79.88;99741.60;102435;1117;79679;-62
2021/05/19 01:26:14;;;;;;;2.30;1.90;;;;;;;11.17;79.72;99748.48;102434;1119;80582;-62
2021/05/19 01:28:20;;;;;;;3.60;2.30;;;;;;;11.21;79.70;99749.71;102433;1118;79936;-63
2021/05/19 01:30:27;;;;;;;8.10;1.90;;;;;;;11.22;79.66;99745.98;102435;1117;81286;-62
2021/05/19 01:32:33;;;;;;;2.70;1.90;;;;;;;11.30;79.62;99749.49;102457;1117;79186;-63
2021/05/19 01:34:38;;;;;;;3.40;1.90;;;;;;;11.29;79.66;99754.06;102482;1118;81094;-62
2021/05/19 01:36:45;;;;;;;2.70;1.80;;;;;;;11.26;79.59;99754.51;102484;1117;81433;-62
2021/05/19 01:38:51;;;;;;;3.60;1.70;;;;;;;11.23;79.54;99761.14;102321;1120;80062;-60
2021/05/19 01:40:57;;;;;;;2.80;1.90;;;;;;;11.22;79.76;99756.80;102329;1120;80938;-60
2021/05/19 01:43:03;;;;;;;3.70;1.90;;;;;;;11.22;79.51;99755.95;102432;1119;79396;-62
2021/05/19 01:45:14;;;;;;;3.20;2.00;;;;;;;11.20;79.74;99752.64;102420;1117;80450;-62
2021/05/19 01:47:41;;;;;;;3.90;2.00;;;;;;;11.17;79.74;99759.30;102496;1117;79126;-62
2021/05/19 01:49:47;;;;;;;7.60;2.10;;;;;;;11.18;79.99;99754.70;102449;1118;79413;-62
2021/05/19 01:51:57;;;;;;;2.70;1.80;;;;;;;11.11;79.69;99749.31;102415;1117;81092;-61
2021/05/19 01:54:05;;;;;;;2.10;1.60;;;;;;;11.11;79.88;99746.61;102426;1118;80543;-61
2021/05/19 01:56:11;;;;;;;2.60;1.60;;;;;;;11.11;79.74;99748.47;102461;1117;81246;-61
2021/05/19 01:58:16;;;;;;;1.90;1.40;;;;;;;11.11;79.70;99748.47;102460;1118;81170;-60
2021/05/19 02:00:28;;;;;;;2.50;1.50;;;;;;;11.06;79.92;99746.41;102450;1117;79950;-60
2021/05/19 02:02:34;;;;;;;2.20;1.70;;;;;;;11.09;79.79;99753.27;102442;1117;79829;-60
2021/05/19 02:04:41;;;;;;;1.90;1.50;;;;;;;11.04;79.98;99748.46;102426;1119;81873;-60
2021/05/19 02:06:51;;;;;;;2.20;1.30;;;;;;;11.07;79.89;99748.05;102461;1117;80233;-62
2021/05/19 02:08:56;;;;;;;2.60;1.60;;;;;;;11.07;79.93;99748.05;102479;1118;80250;-62
2021/05/19 02:11:02;;;;;;;2.80;1.50;;;;;;;11.08;79.90;99749.72;102434;1117;80765;-62
2021/05/19 02:13:11;;;;;;;3.30;1.60;;;;;;;11.00;79.99;99743.69;102464;1117;81766;-62
2021/05/19 02:15:17;;;;;;;3.10;1.50;;;;;;;11.00;79.81;99744.53;102523;1117;80340;-62
2021/05/19 02:17:25;;;;;;;1.90;1.40;;;;;;;11.00;80.15;99744.53;102475;1118;79904;-62
2021/05/19 02:19:31;;;;;;;2.30;1.40;;;;;;;11.00;80.01;99747.23;102493;1117;78949;-62
2021/05/19 02:21:41;;;;;;;4.10;1.60;;;;;;;10.95;80.29;99749.73;102433;1118;80808;-63
2021/05/19 02:23:47;;;;;;;2.80;1.50;;;;;;;10.96;80.03;99754.08;102432;1117;80070;-62
2021/05/19 02:25:53;;;;;;;1.60;1.30;;;;;;;11.00;80.07;99755.34;102447;1117;79904;-62
2021/05/19 02:27:59;;;;;;;2.50;1.40;;;;;;;10.98;80.13;99759.29;102483;1118;80200;-63
2021/05/19 02:30:09;;;;;;;1.70;1.20;;;;;;;10.93;80.09;99762.59;102485;1118;81749;-63
2021/05/19 02:32:15;;;;;;;3.00;1.60;;;;;;;10.93;80.06;99768.00;102345;1120;79901;-60
2021/05/19 02:34:20;;;;;;;2.00;1.40;;;;;;;10.87;80.34;99771.55;102446;1117;80254;-60
2021/05/19 02:36:27;;;;;;;2.80;1.20;;;;;;;10.83;80.11;99774.85;102472;1118;80311;-61
2021/05/19 02:38:34;;;;;;;2.60;1.40;;;;;;;10.89;80.29;99771.33;102455;1117;79555;-63
2021/05/19 02:40:40;;;;;;;4.00;1.70;;;;;;;10.90;80.29;99773.84;102459;1118;80140;-63
2021/05/19 02:42:46;;;;;;;3.50;1.50;;;;;;;10.96;80.32;99767.59;102462;1117;80475;-62
2021/05/19 02:44:52;;;;;;;4.90;1.60;;;;;;;10.97;80.14;99774.67;102450;1118;80147;-63
2021/05/19 02:46:57;;;;;;;2.60;1.60;;;;;;;10.96;80.28;99770.30;102478;1117;80708;-61
2021/05/19 02:49:04;;;;;;;2.00;1.40;;;;;;;10.99;80.19;99774.45;102458;1117;80131;-60
2021/05/19 02:51:10;;;;;;;3.50;1.60;;;;;;;10.94;80.41;99777.78;102470;1117;80239;-60
2021/05/19 02:53:16;;;;;;;3.60;2.00;;;;;;;10.92;80.27;99771.77;102478;1117;81476;-63
2021/05/19 02:55:22;;;;;;;4.60;2.00;;;;;;;10.90;80.32;99784.66;102453;1117;80031;-63
2021/05/19 02:57:28;;;;;;;4.60;1.70;;;;;;;10.89;80.33;99787.55;102451;1118;79969;-62
2021/05/19 02:59:34;;;;;;;3.50;2.30;;;;;;;10.89;80.33;99782.98;102462;1118;80381;-63
2021/05/19 03:01:40;;;;;;;4.20;2.10;;;;;;;10.87;80.32;99786.92;102448;1119;79416;-63
2021/05/19 03:03:47;;;;;;;4.80;2.60;;;;;;;10.86;80.46;99780.69;102469;1118;79014;-61
2021/05/19 03:05:56;;;;;;;3.80;2.30;;;;;;;10.86;80.44;99783.39;102465;1117;79601;-61
2021/05/19 03:08:02;;;;;;;4.00;2.50;;;;;;;10.85;80.56;99781.72;102434;1117;81831;-63
2021/05/19 03:10:10;;;;;;;4.60;2.30;;;;;;;10.84;80.44;99790.88;102450;1118;79127;-65
2021/05/19 03:12:16;;;;;;;3.40;2.60;;;;;;;10.89;80.45;99787.55;102457;1117;80867;-60
2021/05/19 03:14:22;;;;;;;3.60;2.70;;;;;;;10.91;80.56;99793.56;102456;1118;79037;-60
2021/05/19 03:16:28;;;;;;;3.10;2.40;;;;;;;10.93;80.61;99796.92;102468;1118;80438;-61
2021/05/19 03:18:34;;;;;;;4.40;3.00;;;;;;;10.96;80.65;99786.51;102474;1119;80668;-62
2021/05/19 03:20:40;;;;;;;6.00;2.90;;;;;;;10.94;80.63;99794.00;102504;1118;79525;-62
2021/05/19 03:22:46;;;;;;;3.90;2.90;;;;;;;10.89;80.78;99792.95;102469;1118;80971;-64
2021/05/19 03:24:52;;;;;;;5.00;3.30;;;;;;;10.87;80.73;99793.17;102462;1118;80107;-65
2021/05/19 03:26:57;;;;;;;5.60;3.00;;;;;;;10.89;80.80;99793.79;102430;1113;80540;-61
2021/05/19 03:29:04;;;;;;;3.90;3.10;;;;;;;10.86;80.81;99796.06;102433;1117;81112;-61
2021/05/19 03:31:11;;;;;;;5.20;3.60;;;;;;;10.86;81.00;99791.50;102481;1117;79149;-61
2021/05/19 03:33:18;;;;;;;4.30;3.50;;;;;;;10.85;80.91;99799.82;102434;1118;79037;-64
2021/05/19 03:35:24;;;;;;;3.70;3.00;;;;;;;10.84;80.82;99801.69;102442;1117;81121;-64
2021/05/19 03:37:30;;;;;;;3.90;3.20;;;;;;;10.87;80.89;99800.44;102486;1117;80072;-64
2021/05/19 03:39:36;;;;;;;5.70;3.60;;;;;;;10.87;80.59;99805.84;102437;1118;81531;-64
2021/05/19 03:41:45;;;;;;;3.70;3.30;;;;;;;10.85;80.84;99808.73;102440;1117;80123;-64
2021/05/19 03:43:50;;;;;;;4.90;3.30;;;;;;;10.81;80.84;99812.90;102488;1119;79108;-62
2021/05/19 03:45:56;;;;;;;5.60;3.80;;;;;;;10.80;80.71;99805.82;102472;1118;81278;-61
2021/05/19 03:48:03;;;;;;;4.40;3.80;;;;;;;10.81;80.92;99810.20;102451;1117;80675;-61
2021/05/19 03:50:11;;;;;;;5.00;3.80;;;;;;;10.79;80.73;99806.88;102460;1118;79458;-62
2021/05/19 03:52:17;;;;;;;5.70;3.90;;;;;;;10.77;80.88;99808.13;102472;1118;80738;-61
2021/05/19 03:54:23;;;;;;;4.60;3.70;;;;;;;10.74;81.06;99803.13;102444;1118;79926;-61
2021/05/19 03:56:30;;;;;;;6.60;4.50;;;;;;;10.75;80.98;99813.72;102450;1117;80438;-61
2021/05/19 03:58:35;;;;;;;5.10;3.60;;;;;;;10.75;80.87;99808.31;102460;1118;80916;-63
2021/05/19 04:00:42;;;;;;;6.80;4.10;;;;;;;10.78;80.88;99807.91;102466;1117;79802;-64
2021/05/19 04:02:49;;;;;;;3.60;3.30;;;;;;;10.80;81.22;99813.09;102483;1117;79996;-61
2021/05/19 04:04:55;;;;;;;4.80;3.80;;;;;;;10.81;81.02;99810.20;102456;1118;80114;-61
2021/05/19 04:07:01;;;;;;;4.30;3.70;;;;;;;10.79;81.16;99814.98;102520;1118;81942;-61
2021/05/19 04:09:07;;;;;;;5.60;3.80;;;;;;;10.78;81.16;99810.61;102458;1117;80292;-61
2021/05/19 04:11:14;;;;;;;4.60;3.30;;;;;;;10.80;81.10;99813.09;102473;1118;79347;-61
2021/05/19 04:13:19;;;;;;;4.60;3.70;;;;;;;10.83;81.34;99812.68;102468;1118;79529;-61
2021/05/19 04:15:26;;;;;;;4.90;3.70;;;;;;;10.82;81.39;99814.58;102426;1118;80640;-61
2021/05/19 04:17:32;;;;;;;4.60;3.60;;;;;;;10.85;81.34;99819.55;102461;1117;81552;-61
2021/05/19 04:19:38;;;;;;;5.40;3.40;;;;;;;10.87;81.17;99817.49;102453;1117;80166;-61
2021/05/19 04:21:45;;;;;;;6.60;3.50;;;;;;;10.91;81.19;99813.32;102443;1118;81379;-63
2021/05/19 04:23:50;;;;;;;4.90;3.80;;;;;;;10.91;81.24;99821.43;102451;1118;79274;-60
2021/05/19 04:25:56;;;;;;;4.40;3.50;;;;;;;10.96;81.27;99815.42;102459;1117;80252;-61
2021/05/19 04:28:02;;;;;;;5.30;3.60;;;;;;;10.96;81.25;99818.13;102434;1117;80269;-61
2021/05/19 04:30:12;;;;;;;5.30;3.60;;;;;;;10.94;81.24;99818.31;102450;1117;80157;-61
2021/05/19 04:32:21;;;;;;;5.50;3.40;;;;;;;10.99;81.29;99826.64;102490;1118;80847;-63
2021/05/19 04:34:27;;;;;;;4.30;3.50;;;;;;;11.03;81.29;99827.91;102500;1117;81076;-62
2021/05/19 04:36:33;;;;;;;5.50;3.60;;;;;;;11.03;81.24;99822.50;102477;1118;79142;-63
2021/05/19 04:38:39;;;;;;;4.50;2.80;;;;;;;11.03;81.21;99836.02;102478;1118;79988;-62
2021/05/19 04:40:46;;;;;;;4.30;3.30;;;;;;;11.03;81.35;99827.91;102496;1117;80807;-61
2021/05/19 04:42:51;;;;;;;6.90;3.50;;;;;;;11.01;81.14;99839.96;102487;1117;79788;-63
2021/05/19 04:44:58;;;;;;;5.00;3.50;;;;;;;11.05;81.21;99836.63;102471;1119;79945;-63
2021/05/19 04:47:04;;;;;;;5.60;3.90;;;;;;;11.05;81.25;99836.63;102482;1118;81469;-63
2021/05/19 04:49:10;;;;;;;5.10;3.20;;;;;;;11.06;81.20;99842.88;102445;1117;80391;-63
2021/05/19 04:51:16;;;;;;;4.70;3.30;;;;;;;11.05;81.33;99841.20;102445;1117;80335;-65
2021/05/19 04:53:22;;;;;;;4.60;3.30;;;;;;;11.05;81.21;99844.73;102453;1118;81037;-63
2021/05/19 04:55:27;;;;;;;4.80;3.00;;;;;;;11.03;81.34;99844.13;102459;1117;80740;-63
2021/05/19 04:57:33;;;;;;;3.60;3.00;;;;;;;11.00;81.24;99844.53;102456;1117;82074;-61
2021/05/19 04:59:39;;;;;;;5.00;3.20;;;;;;;11.03;81.18;99852.23;102449;1119;80667;-61
2021/05/19 05:01:45;;;;;;;6.80;3.50;;;;;;;11.07;81.33;99855.36;102465;1118;79615;-63
2021/05/19 05:03:50;;;;;;;5.30;3.50;;;;;;;11.12;81.29;99848.27;102458;1118;80082;-62
2021/05/19 05:05:59;;;;;;;4.60;4.10;;;;;;;11.17;81.24;99862.03;102434;1117;80579;-62
2021/05/19 05:08:05;;;;;;;4.90;3.60;;;;;;;11.21;81.28;99865.97;102459;1119;80538;-62
2021/05/19 05:10:13;;;;;;;5.00;4.00;;;;;;;11.22;81.19;99862.23;102435;1117;81290;-60
2021/05/19 05:12:19;;;;;;;7.10;4.40;;;;;;;11.23;81.27;99865.78;102466;1117;79046;-61
2021/05/19 05:14:25;;;;;;;5.90;4.80;;;;;;;11.21;81.43;99862.42;102443;1117;79791;-61
2021/05/19 05:16:31;;;;;;;6.50;4.30;;;;;;;11.20;81.27;99860.78;102427;1117;80463;-61
2021/05/19 05:18:38;;;;;;;5.90;4.70;;;;;;;11.20;81.40;99866.19;102463;1118;80158;-64
2021/05/19 05:20:44;;;;;;;4.70;4.20;;;;;;;11.19;81.39;99865.34;102435;1119;79213;-64
2021/05/19 05:22:50;;;;;;;7.20;4.50;;;;;;;11.15;81.34;99876.79;102433;1118;79953;-64
2021/05/19 05:24:55;;;;;;;5.80;4.50;;;;;;;11.12;81.50;99871.80;102441;1117;79831;-64
2021/05/19 05:27:01;;;;;;;6.80;4.50;;;;;;;11.18;81.38;99876.35;102447;1117;80869;-61
2021/05/19 05:29:07;;;;;;;6.50;4.60;;;;;;;11.21;81.49;99871.38;102424;1117;80215;-60
2021/05/19 05:31:12;;;;;;;6.80;4.30;;;;;;;11.25;81.34;99874.50;102444;1117;80557;-61
2021/05/19 05:33:18;;;;;;;5.80;4.70;;;;;;;11.24;81.50;99873.67;102449;1117;81128;-65
2021/05/19 05:35:24;;;;;;;5.80;4.70;;;;;;;11.28;81.43;99875.96;102441;1119;80132;-64
2021/05/19 05:37:29;;;;;;;5.90;4.60;;;;;;;11.32;81.43;99886.15;102460;1119;80478;-66
2021/05/19 05:39:36;;;;;;;5.90;4.90;;;;;;;11.36;81.43;99881.17;102462;1118;79652;-66
2021/05/19 05:41:50;;;;;;;5.80;4.40;;;;;;;11.38;81.47;99882.63;102460;1118;81606;-65
2021/05/19 05:43:57;;;;;;;6.90;4.90;;;;;;;11.41;81.42;99884.92;102472;1118;80975;-65
2021/05/19 05:46:02;;;;;;;6.30;5.20;;;;;;;11.48;81.41;99888.44;102443;1117;80191;-65
2021/05/19 05:48:09;;;;;;;5.90;4.60;;;;;;;11.51;81.28;99890.73;102467;1117;80228;-61
2021/05/19 05:50:15;;;;;;;8.50;5.40;;;;;;;11.52;81.31;99886.16;102465;1117;79410;-61
2021/05/19 05:52:21;;;;;;;5.40;4.30;;;;;;;11.53;81.40;99887.84;102420;1117;80901;-64
2021/05/19 05:54:26;;;;;;;6.80;4.90;;;;;;;11.52;81.46;99896.98;102446;1117;79841;-64
2021/05/19 05:56:33;;;;;;;7.30;5.20;;;;;;;11.54;81.57;99893.03;102432;1118;80594;-64
2021/05/19 05:58:39;;;;;;;7.60;5.30;;;;;;;11.63;81.50;99905.31;102479;1117;80058;-64
2021/05/19 06:00:44;;;;;;;6.60;5.30;;;;;;;11.67;81.37;99903.03;102435;1117;81470;-64
2021/05/19 06:02:50;;;;;;;6.70;5.80;;;;;;;11.70;81.43;99903.47;102422;1118;81150;-63
2021/05/19 06:04:56;;;;;;;7.70;5.50;;;;;;;11.75;81.46;99902.86;102442;1118;80832;-64
2021/05/19 06:07:02;;;;;;;9.00;5.70;;;;;;;11.81;81.49;99902.03;102476;1118;80029;-65
2021/05/19 06:09:11;;;;;;;8.30;6.10;;;;;;;11.88;81.29;99899.30;102453;1118;79046;-64
2021/05/19 06:11:16;;;;;;;7.30;5.90;;;;;;;11.98;81.28;99907.81;102468;1117;80106;-64
2021/05/19 06:13:22;;;;;;;7.20;5.80;;;;;;;12.05;81.39;99901.37;102476;1117;79855;-64
2021/05/19 06:15:28;;;;;;;9.20;6.10;;;;;;;12.03;81.41;99905.33;102497;1117;80765;-64
2021/05/19 06:17:34;;;;;;;9.20;6.50;;;;;;;12.06;81.27;99897.59;102499;1117;80590;-64
2021/05/19 06:19:40;;;;;;;8.40;6.60;;;;;;;12.11;81.08;99897.83;102441;1118;80705;-64
2021/05/19 06:21:49;;;;;;;7.40;6.40;;;;;;;12.17;81.13;99907.78;102466;1118;81455;-63
2021/05/19 06:23:55;;;;;;;8.00;6.00;;;;;;;12.14;81.04;99907.39;102456;1117;79272;-64
2021/05/19 06:26:05;;;;;;;10.50;7.50;;;;;;;12.13;81.10;99906.56;102449;1117;80004;-65
2021/05/19 06:28:11;;;;;;;8.50;7.00;;;;;;;12.18;81.11;99909.45;102438;1118;79954;-62
2021/05/19 06:30:19;;;;;;;9.40;7.00;;;;;;;12.22;81.16;99912.58;102448;1116;79955;-61
2021/05/19 06:32:25;;;;;;;8.70;6.40;;;;;;;12.18;81.10;99909.45;102458;1117;80396;-60
2021/05/19 06:34:31;;;;;;;9.00;6.60;;;;;;;12.17;81.12;99907.78;102441;1117;80345;-62
2021/05/19 06:36:41;;;;;;;11.10;7.70;;;;;;;12.21;81.13;99910.91;102445;1118;81897;-63
2021/05/19 06:38:47;;;;;;;9.90;8.60;;;;;;;12.25;81.29;99910.27;102432;1117;79629;-63
2021/05/19 06:40:56;;;;;;;9.90;6.70;;;;;;;12.25;81.30;99910.27;102462;1117;79735;-63
2021/05/19 06:43:02;;;;;;;9.50;7.00;;;;;;;12.26;81.26;99919.22;102441;1117;79695;-64
2021/05/19 06:45:12;;;;;;;9.20;7.60;;;;;;;12.21;81.15;99921.74;102447;1117;80317;-64
2021/05/19 06:47:18;;;;;;;8.90;7.70;;;;;;;12.19;81.16;99916.55;102470;1117;79476;-63
2021/05/19 06:49:29;;;;;;;8.90;7.90;;;;;;;12.28;81.60;99917.13;102464;1118;81551;-63
2021/05/19 06:51:35;;;;;;;9.60;7.30;;;;;;;12.37;81.25;99926.70;102464;1118;80744;-63
2021/05/19 06:53:42;;;;;;;10.00;8.20;;;;;;;12.38;81.24;99918.38;102470;1118;80149;-66
2021/05/19 06:55:50;;;;;;;11.00;7.70;;;;;;;12.39;81.38;99917.31;102441;1119;78909;-66
2021/05/19 06:58:00;;;;;;;8.70;7.50;;;;;;;12.43;81.37;99923.14;102441;1117;80668;-66
2021/05/19 07:00:11;;;;;;;8.50;7.60;;;;;;;12.41;81.29;99926.05;102431;1118;79653;-67
2021/05/19 07:02:20;;;;;;;9.80;8.00;;;;;;;12.47;81.18;99920.86;102501;1118;80303;-62
2021/05/19 07:04:27;;;;;;;10.40;8.30;;;;;;;12.48;81.25;99925.20;102458;1118;80759;-61
2021/05/19 07:06:33;;;;;;;9.70;8.00;;;;;;;12.48;81.32;99925.20;102410;1118;79084;-63
2021/05/19 07:08:42;;;;;;;9.30;8.00;;;;;;;12.57;81.26;99921.23;102474;1119;80988;-66
2021/05/19 07:10:48;;;;;;;8.60;7.30;;;;;;;12.58;81.21;99921.00;102442;1117;81654;-65
2021/05/19 07:12:54;;;;;;;10.40;8.60;;;;;;;12.61;81.00;99922.48;102437;1117;81350;-65
2021/05/19 07:15:10;;;;;;;9.30;8.50;;;;;;;12.55;81.26;99921.45;102449;1117;80806;-65
2021/05/19 07:17:16;;;;;;;9.70;8.70;;;;;;;12.60;81.29;99928.93;102470;1118;80896;-62
2021/05/19 07:19:23;;;;;;;12.40;9.40;;;;;;;12.65;81.52;99923.70;102471;1113;80179;-63
2021/05/19 07:21:29;;;;;;;9.40;8.40;;;;;;;12.74;81.29;99919.71;102502;1117;80378;-63
2021/05/19 07:23:35;;;;;;;10.60;9.10;;;;;;;12.79;81.23;99917.18;102303;1120;81546;-62
2021/05/19 07:25:41;;;;;;;20.20;15.00;;;;;;;12.88;81.23;99921.32;102453;1118;81239;-61
2021/05/19 07:27:47;;;;;;;11.70;10.00;;;;;;;12.95;81.18;99922.11;102429;1118;80068;-62
2021/05/19 07:29:52;;;;;;;10.40;8.80;;;;;;;13.04;81.14;99920.81;102452;1113;79704;-62
2021/05/19 07:32:00;;;;;;;11.70;9.20;;;;;;;13.12;81.21;99917.88;102343;1120;80949;-64
2021/05/19 07:34:06;;;;;;;9.70;8.60;;;;;;;13.16;81.12;99921.80;102451;1117;80944;-64
2021/05/19 07:36:12;;;;;;;10.20;9.00;;;;;;;13.22;80.99;99915.52;102444;1117;79271;-65
2021/05/19 07:38:18;;;;;;;9.80;8.50;;;;;;;13.29;81.02;99913.61;102474;1118;79916;-63
2021/05/19 07:40:28;;;;;;;10.40;9.30;;;;;;;13.30;81.06;99915.25;102490;1117;80906;-62
2021/05/19 07:42:34;;;;;;;10.60;9.50;;;;;;;13.43;81.32;99920.58;102466;1118;80694;-67
2021/05/19 07:44:40;;;;;;;12.00;9.90;;;;;;;13.52;81.05;99919.27;102434;1118;81844;-61
2021/05/19 07:46:49;;;;;;;10.40;9.30;;;;;;;13.62;81.08;99918.80;102457;1117;80499;-63
2021/05/19 07:48:54;;;;;;;11.60;8.80;;;;;;;13.67;80.86;99915.41;102492;1118;80275;-60
2021/05/19 07:51:01;;;;;;;10.20;9.00;;;;;;;13.69;80.98;99913.30;102459;1118;79600;-60
2021/05/19 07:53:09;;;;;;;10.80;9.40;;;;;;;13.83;81.12;99912.14;102460;1117;80121;-65
2021/05/19 07:55:22;;;;;;;10.10;9.20;;;;;;;13.98;80.71;99915.36;102441;1118;80309;-65
2021/05/19 07:57:40;;;;;;;11.60;9.90;;;;;;;14.05;80.89;99924.27;102459;1118;81266;-59
2021/05/19 07:59:49;;;;;;;10.30;9.30;;;;;;;14.06;80.59;99915.88;102449;1117;79148;-60
2021/05/19 08:02:03;;;;;;;10.20;8.80;;;;;;;14.13;80.21;99919.38;102433;1118;81697;-65
2021/05/19 08:04:11;;;;;;;11.20;9.40;;;;;;;14.15;80.41;99919.14;102453;1117;82808;-65
2021/05/19 08:06:23;;;;;;;10.40;9.30;;;;;;;14.19;80.30;99926.64;102477;1117;79392;-65
2021/05/19 08:08:28;;;;;;;10.50;9.20;;;;;;;14.37;80.19;99922.29;102433;1117;79354;-66
2021/05/19 08:10:34;;;;;;;9.90;8.90;;;;;;;14.54;79.94;99929.64;102461;1117;80884;-66
2021/05/19 08:12:41;;;;;;;10.70;9.60;;;;;;;14.49;79.68;99923.22;102452;1117;80268;-59
2021/05/19 08:14:50;;;;;;;12.30;9.70;;;;;;;14.53;79.64;99922.53;102497;1118;80164;-60
2021/05/19 08:16:56;;;;;;;10.60;8.90;;;;;;;14.68;79.87;99928.43;102477;1117;80740;-66
2021/05/19 08:19:02;;;;;;;12.80;10.30;;;;;;;14.78;79.68;99927.88;102424;1119;80558;-67
2021/05/19 08:21:08;;;;;;;10.50;9.40;;;;;;;14.78;79.37;99918.92;102449;1118;80481;-67
2021/05/19 08:23:14;;;;;;;11.60;8.80;;;;;;;14.83;79.39;99924.50;102462;1119;80551;-67
2021/05/19 08:25:20;;;;;;;10.60;9.10;;;;;;;14.91;79.14;99925.02;102470;1112;79638;-66
2021/05/19 08:27:26;;;;;;;11.60;9.00;;;;;;;14.94;78.77;99924.56;102457;1119;79939;-60
2021/05/19 08:29:32;;;;;;;9.90;8.90;;;;;;;15.05;78.80;99920.23;102464;1117;80737;-61
2021/05/19 08:31:41;;;;;;;9.90;8.70;;;;;;;15.18;78.98;99929.05;102449;1118;81276;-60
2021/05/19 08:33:49;;;;;;;10.80;8.70;;;;;;;15.20;78.47;99934.24;102329;1118;80627;-61
2021/05/19 08:35:57;;;;;;;11.90;8.90;;;;;;;15.34;78.42;99927.55;102462;1118;80503;-60
2021/05/19 08:38:03;;;;;;;12.00;8.80;;;;;;;15.45;78.51;99931.38;102463;1117;79629;-60
2021/05/19 08:40:11;;;;;;;9.70;8.70;;;;;;;15.50;78.34;99934.25;102434;1118;80891;-59
2021/05/19 08:42:17;;;;;;;9.90;8.10;;;;;;;15.29;77.88;99941.03;102463;1117;80504;-59
2021/05/19 08:44:24;;;;;;;11.60;9.50;;;;;;;15.29;77.82;99943.75;102446;1118;81431;-59
2021/05/19 08:46:34;;;;;;;8.90;7.90;;;;;;;15.38;77.91;99938.81;102469;1117;79013;-59
2021/05/19 08:48:42;;;;;;;10.60;8.70;;;;;;;15.57;78.07;99944.00;102454;1117;80453;-67
2021/05/19 08:50:49;;;;;;;12.70;9.30;;;;;;;15.56;77.82;99938.77;102459;1117;80135;-67
2021/05/19 08:52:56;;;;;;;12.30;10.10;;;;;;;15.71;77.61;99936.45;102414;1117;81770;-67
2021/05/19 08:55:12;;;;;;;11.60;8.50;;;;;;;15.83;77.33;99940.84;102474;1117;81091;-67
2021/05/19 08:57:18;;;;;;;11.10;8.80;;;;;;;15.94;77.23;99933.75;102473;1118;80790;-66
2021/05/19 08:59:24;;;;;;;10.60;9.50;;;;;;;16.08;77.21;99931.63;102461;1117;80068;-67
2021/05/19 09:01:45;;;;;;;12.60;9.20;;;;;;;16.01;76.88;99936.38;102441;1118;81015;-67
2021/05/19 09:04:07;;;;;;;10.00;8.50;;;;;;;16.15;76.84;99937.81;102467;1117;79230;-60
2021/05/19 09:06:22;;;;;;;12.10;9.70;;;;;;;16.26;76.42;99934.26;102645;1089;80986;-66
2021/05/19 09:08:35;;;;;;;11.30;8.80;;;;;;;16.28;76.20;99938.41;102477;1117;81540;-68
2021/05/19 09:10:46;;;;;;;12.00;8.80;;;;;;;16.33;75.92;99935.79;102489;1118;80498;-67
2021/05/19 09:12:51;;;;;;;12.30;8.30;;;;;;;16.53;76.59;99938.17;102472;1116;79471;-67
2021/05/19 09:15:02;;;;;;;12.10;9.00;;;;;;;16.68;75.86;99933.04;102475;1117;80145;-67
2021/05/19 09:17:20;;;;;;;12.90;8.20;;;;;;;16.81;76.02;99931.96;102443;1117;80383;-67
2021/05/19 09:19:35;;;;;;;8.30;7.50;;;;;;;16.75;75.56;99938.38;102472;1116;79557;-68
2021/05/19 09:21:43;;;;;;;8.80;7.80;;;;;;;16.93;75.53;99944.48;102476;1117;79799;-59
2021/05/19 09:23:52;;;;;;;9.50;7.10;;;;;;;16.99;74.78;99940.80;102476;1118;79190;-59
2021/05/19 09:26:07;;;;;;;9.20;7.60;;;;;;;16.96;75.13;99944.01;102482;1118;80927;-59
2021/05/19 09:28:26;;;;;;;8.70;7.70;;;;;;;17.17;74.86;99936.23;102459;1118;80672;-58
2021/05/19 09:30:41;;;;;;;9.60;7.50;;;;;;;17.16;74.27;99940.03;102501;1117;80535;-59
2021/05/19 09:32:50;;;;;;;11.80;7.50;;;;;;;17.02;73.82;99944.94;102383;1117;80305;-67
2021/05/19 09:35:01;;;;;;;8.10;6.90;;;;;;;16.96;73.87;99949.47;102455;1117;79596;-67
2021/05/19 09:37:08;;;;;;;9.60;7.50;;;;;;;17.12;73.86;99950.59;102451;1118;80293;-67
2021/05/19 09:39:14;;;;;;;7.70;6.90;;;;;;;17.10;73.36;99941.83;102477;1117;80035;-60
2021/05/19 09:41:27;;;;;;;8.80;7.20;;;;;;;17.18;73.30;99944.17;102333;1120;81509;-60
2021/05/19 09:46:12;;;;;;;8.50;6.90;;;;;;;17.14;73.08;99942.18;102764;1089;78954;-67
2021/05/19 09:48:18;;;;;;;10.20;6.60;;;;;;;17.27;72.41;99941.88;102467;1117;79757;-68
2021/05/19 09:50:46;;;;;;;8.30;6.50;;;;;;;17.19;72.30;99940.38;102448;1117;80910;-60
2021/05/19 09:53:12;;;;;;;8.00;7.20;;;;;;;17.24;71.66;99931.45;102848;1089;80397;-61
2021/05/19 09:55:17;;;;;;;8.50;7.00;;;;;;;17.03;71.83;99936.50;102725;1088;82006;-67
2021/05/19 09:57:28;;;;;;;7.70;5.80;;;;;;;17.07;71.74;99936.84;102465;1119;81092;-68